Карточка аэропорта UUYY

Внимание!
Информация на этой странице в стадии наполнения.
Если вы не увидели какой-то информации, или заметили неточность - пожалуйста сообщите нам!
Спасибо!
Команда RU-STAFF
Название аэропортаСыктывкар
Название аэропорта (англ.)Syktyvkar
Превышение339 ft. (103.3 m.)
Координаты61°38.502', 50°50.298'
Высота перехода3000 feet
Эшелон переходаQNH>=1013hPa:FL040; QNH<1013hPa:FL050; QNH<977hPa:FL060
Коды ответчика3130-3134, 5752-5757, 5770-5777, 6701-6717
Зона ОрВДСанкт-Петербург РПИ (ULLL)
Данные METARUUYY 142109Z 20002MPS 6000 SCT003 BKN020CB 19/19 Q1006 R18/29//51 TEMPO 0300 FG RMK QBB110 QFE746/0995
Проноз погоды (TAF)UUYY 142000Z 1421/1521 22003G12MPS 4000 -SHRA BR BKN005 BKN017CB TEMPO 1421/1503 0300 TSRA FG VV002 FM150300 03003G10MPS 6000 -SHRA FEW011 BKN017CB TEMPO 1503/1515 34005G14MPS 1000 TSRA BR FEW005 BKN016CB
NOTAMshow/hide NOTAM
AWOS   TABLE

Информация о ВПП

ВПП Длина ВПП (м.) Покрытие Курс ВПП Частота ILS
192500Асфальтобетон186111.7
012500Асфальтобетон6108.3

Диспетчерские позиции

Позывной Наименование органа УВД Частота
UUYY_R_APPСивкар-Круг124.600
UUYY_TWRСивкар-Старт124.600



Спутниковое изображение